Observations for Trim Patrick St
| Time | AQI | Temp °C | Hum % | Pres Pa | CO μg/m³ | H₂S μg/m³ | NO μg/m³ | NO₂ μg/m³ | O₃ μg/m³ | SO₂ μg/m³ | PM1 μg/m³ | PM2.5 μg/m³ | PM10 μg/m³ |
|---|---|---|---|---|---|---|---|---|---|---|---|---|---|
| Thursday 6 August 2026 | |||||||||||||
| 07:50 | 2 | 15 | 74 | 38,460 | 0.33 | 0 | 2.77 | 13.38 | 21.91 | 0 | 2.86 | 6.36 | 6.99 |
| 07:49 | 2 | 15 | 74 | 38,460 | 0.33 | 0 | 2.81 | 11.76 | 20.56 | 0 | 2.86 | 6.35 | 6.99 |
| 07:48 | 2 | 14.9 | 74 | 38,460 | 0.33 | 0 | 2.84 | 12.21 | 23.78 | 0 | 2.86 | 5.64 | 6.2 |
| 07:47 | 2 | 14.9 | 74 | 38,460 | 0.33 | 0 | 2.8 | 10.64 | 22.94 | 0 | 2 | 6.35 | 6.98 |
| 07:46 | 2 | 14.8 | 74 | 38,460 | 0.33 | 0 | 2.81 | 12.25 | 24.54 | 0 | 2.86 | 7.07 | 7.77 |
| 07:45 | 2 | 14.8 | 74 | 38,460 | 0.33 | 0 | 2.95 | 11.28 | 21.99 | 0 | 2 | 4.91 | 5.4 |
| 07:44 | 2 | 14.8 | 74 | 38,460 | 0.34 | 0 | 2.88 | 14.34 | 24.25 | 0 | 2.86 | 6.32 | 6.96 |
| 07:43 | 2 | 14.7 | 74 | 38,460 | 0.34 | 0 | 2.99 | 13.41 | 20.87 | 0 | 2.86 | 7.03 | 7.73 |
| 07:42 | 2 | 14.7 | 74 | 38,460 | 0.34 | 0 | 2.93 | 11.68 | 24.04 | 0 | 2 | 5.62 | 6.18 |
| 07:41 | 2 | 14.6 | 74 | 38,460 | 0.34 | 0 | 3 | 13.46 | 22.02 | 0 | 2 | 5.6 | 6.16 |
| 07:40 | 2 | 14.6 | 74 | 38,460 | 0.36 | 0 | 2.97 | 11.75 | 23.97 | 0 | 2.86 | 7.02 | 7.72 |
| 07:39 | 2 | 14.5 | 74 | 38,460 | 0.35 | 0 | 2.87 | 16.46 | 20.62 | 0 | 2 | 5.59 | 6.14 |
| 07:38 | 2 | 14.5 | 75 | 38,460 | 0.34 | 0 | 2.9 | 13.42 | 19.01 | 0 | 2 | 5.57 | 6.12 |
| 07:37 | 2 | 14.4 | 75 | 38,460 | 0.39 | 0 | 2.9 | 17.71 | 25.67 | 0 | 2.86 | 6.97 | 7.66 |
| 07:36 | 2 | 14.4 | 75 | 38,460 | 0.35 | 0 | 2.88 | 14.61 | 19.6 | 0 | 2.86 | 5.54 | 6.09 |
| 07:35 | 2 | 14.3 | 75 | 38,460 | 0.35 | 0 | 2.95 | 18.19 | 18.99 | 0 | 2 | 5.53 | 6.09 |
| 07:34 | 2 | 14.3 | 75 | 38,460 | 0.34 | 0 | 2.91 | 16.48 | 20.78 | 0 | 2 | 6.23 | 6.85 |
| 07:33 | 2 | 14.2 | 76 | 38,460 | 0.34 | 0 | 3.06 | 19.82 | 21.26 | 0 | 2 | 5.51 | 6.06 |
| 07:32 | 2 | 14.2 | 76 | 38,460 | 0.35 | 0.08 | 3.16 | 19.45 | 17.79 | 0 | 2 | 5.5 | 6.05 |
| 07:31 | 2 | 14.1 | 75 | 38,460 | 0.34 | 0 | 3.31 | 27.56 | 15.58 | 0 | 2.86 | 6.23 | 6.85 |